sensor_id;sensor_type;location;lat;lon;timestamp;temperature;humidity
16392;DHT22;8305;-33.882;151.134;2023-01-09T00:02:06;26.00;99.90
16392;DHT22;8305;-33.882;151.134;2023-01-09T00:04:36;26.10;99.90
16392;DHT22;8305;-33.882;151.134;2023-01-09T00:07:07;26.10;99.90
16392;DHT22;8305;-33.882;151.134;2023-01-09T00:09:38;26.10;99.90
16392;DHT22;8305;-33.882;151.134;2023-01-09T00:12:11;26.10;99.90
16392;DHT22;8305;-33.882;151.134;2023-01-09T00:14:41;26.20;99.90
16392;DHT22;8305;-33.882;151.134;2023-01-09T00:17:12;26.30;99.90
16392;DHT22;8305;-33.882;151.134;2023-01-09T00:19:43;26.50;99.90
16392;DHT22;8305;-33.882;151.134;2023-01-09T00:22:14;26.50;99.90
16392;DHT22;8305;-33.882;151.134;2023-01-09T00:24:45;26.50;99.90
16392;DHT22;8305;-33.882;151.134;2023-01-09T00:27:17;26.60;99.90
16392;DHT22;8305;-33.882;151.134;2023-01-09T00:29:48;26.70;99.90
16392;DHT22;8305;-33.882;151.134;2023-01-09T00:32:19;26.80;99.90
16392;DHT22;8305;-33.882;151.134;2023-01-09T00:34:50;26.80;99.90
16392;DHT22;8305;-33.882;151.134;2023-01-09T00:37:21;26.90;99.90
16392;DHT22;8305;-33.882;151.134;2023-01-09T00:39:52;27.10;99.90
16392;DHT22;8305;-33.882;151.134;2023-01-09T00:42:28;27.20;99.90
16392;DHT22;8305;-33.882;151.134;2023-01-09T00:45:03;27.30;99.90
16392;DHT22;8305;-33.882;151.134;2023-01-09T00:47:36;27.40;99.90
16392;DHT22;8305;-33.882;151.134;2023-01-09T00:50:10;27.60;99.90
16392;DHT22;8305;-33.882;151.134;2023-01-09T00:52:42;27.60;99.90
16392;DHT22;8305;-33.882;151.134;2023-01-09T00:55:14;27.60;99.90
16392;DHT22;8305;-33.882;151.134;2023-01-09T00:57:47;27.50;99.90
16392;DHT22;8305;-33.882;151.134;2023-01-09T01:00:19;27.60;99.90
16392;DHT22;8305;-33.882;151.134;2023-01-09T01:02:49;27.70;99.90
16392;DHT22;8305;-33.882;151.134;2023-01-09T01:05:20;27.60;99.90
16392;DHT22;8305;-33.882;151.134;2023-01-09T01:08:11;27.60;99.90
16392;DHT22;8305;-33.882;151.134;2023-01-09T01:10:42;27.70;99.90
16392;DHT22;8305;-33.882;151.134;2023-01-09T01:13:15;27.80;99.90
16392;DHT22;8305;-33.882;151.134;2023-01-09T01:15:46;27.80;99.90
16392;DHT22;8305;-33.882;151.134;2023-01-09T01:18:17;27.80;99.90
16392;DHT22;8305;-33.882;151.134;2023-01-09T01:20:48;27.90;99.90
16392;DHT22;8305;-33.882;151.134;2023-01-09T01:23:18;27.90;99.90
16392;DHT22;8305;-33.882;151.134;2023-01-09T01:25:49;27.90;99.90
16392;DHT22;8305;-33.882;151.134;2023-01-09T01:28:22;27.80;99.90
16392;DHT22;8305;-33.882;151.134;2023-01-09T01:30:53;27.80;99.90
16392;DHT22;8305;-33.882;151.134;2023-01-09T01:33:23;27.90;99.90
16392;DHT22;8305;-33.882;151.134;2023-01-09T01:36:00;28.00;99.90
16392;DHT22;8305;-33.882;151.134;2023-01-09T01:38:32;27.90;99.90
16392;DHT22;8305;-33.882;151.134;2023-01-09T01:41:03;27.90;99.90
16392;DHT22;8305;-33.882;151.134;2023-01-09T01:43:55;27.90;99.90
16392;DHT22;8305;-33.882;151.134;2023-01-09T01:46:26;27.90;99.90
16392;DHT22;8305;-33.882;151.134;2023-01-09T01:49:00;27.80;99.90
16392;DHT22;8305;-33.882;151.134;2023-01-09T01:51:34;27.90;99.90
16392;DHT22;8305;-33.882;151.134;2023-01-09T01:54:09;27.60;99.90
16392;DHT22;8305;-33.882;151.134;2023-01-09T01:56:43;27.50;99.90
16392;DHT22;8305;-33.882;151.134;2023-01-09T01:59:22;27.70;99.90
16392;DHT22;8305;-33.882;151.134;2023-01-09T02:01:55;27.70;99.90
16392;DHT22;8305;-33.882;151.134;2023-01-09T02:04:27;27.80;99.90
16392;DHT22;8305;-33.882;151.134;2023-01-09T02:07:00;27.90;99.90
16392;DHT22;8305;-33.882;151.134;2023-01-09T02:09:32;27.80;99.90
16392;DHT22;8305;-33.882;151.134;2023-01-09T02:12:12;27.80;99.90
16392;DHT22;8305;-33.882;151.134;2023-01-09T02:14:47;27.90;99.90
16392;DHT22;8305;-33.882;151.134;2023-01-09T02:17:28;28.10;99.90
16392;DHT22;8305;-33.882;151.134;2023-01-09T02:32:02;28.40;99.90
16392;DHT22;8305;-33.882;151.134;2023-01-09T02:34:39;28.40;99.90
16392;DHT22;8305;-33.882;151.134;2023-01-09T02:37:19;28.20;99.90
16392;DHT22;8305;-33.882;151.134;2023-01-09T02:39:59;28.20;99.90
16392;DHT22;8305;-33.882;151.134;2023-01-09T02:42:34;28.10;99.90
16392;DHT22;8305;-33.882;151.134;2023-01-09T02:45:05;28.10;99.90
16392;DHT22;8305;-33.882;151.134;2023-01-09T02:47:43;28.10;99.90
16392;DHT22;8305;-33.882;151.134;2023-01-09T02:50:16;28.20;99.90
16392;DHT22;8305;-33.882;151.134;2023-01-09T02:56:04;28.10;99.90
16392;DHT22;8305;-33.882;151.134;2023-01-09T02:58:49;28.10;99.90
16392;DHT22;8305;-33.882;151.134;2023-01-09T03:01:27;27.80;99.90
16392;DHT22;8305;-33.882;151.134;2023-01-09T03:04:09;27.80;99.90
16392;DHT22;8305;-33.882;151.134;2023-01-09T03:06:52;27.60;99.90
16392;DHT22;8305;-33.882;151.134;2023-01-09T03:09:26;27.50;99.90
16392;DHT22;8305;-33.882;151.134;2023-01-09T03:12:03;27.60;99.90
16392;DHT22;8305;-33.882;151.134;2023-01-09T03:14:40;27.70;99.90
16392;DHT22;8305;-33.882;151.134;2023-01-09T03:17:13;27.80;99.90
16392;DHT22;8305;-33.882;151.134;2023-01-09T03:19:47;27.70;99.90
16392;DHT22;8305;-33.882;151.134;2023-01-09T03:22:18;27.60;99.90
16392;DHT22;8305;-33.882;151.134;2023-01-09T03:24:49;27.50;99.90
16392;DHT22;8305;-33.882;151.134;2023-01-09T03:27:20;27.50;99.90
16392;DHT22;8305;-33.882;151.134;2023-01-09T03:29:51;27.40;99.90
16392;DHT22;8305;-33.882;151.134;2023-01-09T03:32:23;27.50;99.90
16392;DHT22;8305;-33.882;151.134;2023-01-09T03:34:59;27.60;99.90
16392;DHT22;8305;-33.882;151.134;2023-01-09T03:37:30;27.60;99.90
16392;DHT22;8305;-33.882;151.134;2023-01-09T03:40:01;27.70;99.90
16392;DHT22;8305;-33.882;151.134;2023-01-09T03:42:32;27.50;99.90
16392;DHT22;8305;-33.882;151.134;2023-01-09T03:45:03;27.50;99.90
16392;DHT22;8305;-33.882;151.134;2023-01-09T03:47:34;27.60;99.90
16392;DHT22;8305;-33.882;151.134;2023-01-09T03:50:08;27.40;99.90
16392;DHT22;8305;-33.882;151.134;2023-01-09T03:52:38;27.40;99.90
16392;DHT22;8305;-33.882;151.134;2023-01-09T03:55:09;27.40;99.90
16392;DHT22;8305;-33.882;151.134;2023-01-09T03:57:40;27.30;99.90
16392;DHT22;8305;-33.882;151.134;2023-01-09T04:00:12;27.40;99.90
16392;DHT22;8305;-33.882;151.134;2023-01-09T04:02:42;27.30;99.90
16392;DHT22;8305;-33.882;151.134;2023-01-09T04:05:15;27.30;99.90
16392;DHT22;8305;-33.882;151.134;2023-01-09T04:07:46;27.30;99.90
16392;DHT22;8305;-33.882;151.134;2023-01-09T04:10:20;27.30;99.90
16392;DHT22;8305;-33.882;151.134;2023-01-09T04:12:50;27.20;99.90
16392;DHT22;8305;-33.882;151.134;2023-01-09T04:15:21;27.10;99.90
16392;DHT22;8305;-33.882;151.134;2023-01-09T04:17:52;27.20;99.90
16392;DHT22;8305;-33.882;151.134;2023-01-09T04:20:25;27.10;99.90
16392;DHT22;8305;-33.882;151.134;2023-01-09T04:22:56;27.20;99.90
16392;DHT22;8305;-33.882;151.134;2023-01-09T04:25:27;27.20;99.90
16392;DHT22;8305;-33.882;151.134;2023-01-09T04:27:58;27.10;99.90
16392;DHT22;8305;-33.882;151.134;2023-01-09T04:30:29;27.10;99.90
16392;DHT22;8305;-33.882;151.134;2023-01-09T04:33:00;27.10;99.90
16392;DHT22;8305;-33.882;151.134;2023-01-09T04:35:32;27.10;99.90
16392;DHT22;8305;-33.882;151.134;2023-01-09T04:38:04;27.00;99.90
16392;DHT22;8305;-33.882;151.134;2023-01-09T04:40:34;26.90;99.90
16392;DHT22;8305;-33.882;151.134;2023-01-09T04:43:05;26.90;99.90
16392;DHT22;8305;-33.882;151.134;2023-01-09T04:45:36;26.80;99.90
16392;DHT22;8305;-33.882;151.134;2023-01-09T04:48:07;26.80;99.90
16392;DHT22;8305;-33.882;151.134;2023-01-09T04:50:39;26.70;99.90
16392;DHT22;8305;-33.882;151.134;2023-01-09T04:53:10;26.70;99.90
16392;DHT22;8305;-33.882;151.134;2023-01-09T04:55:41;26.70;99.90
16392;DHT22;8305;-33.882;151.134;2023-01-09T04:58:12;26.70;99.90
16392;DHT22;8305;-33.882;151.134;2023-01-09T05:00:43;26.60;99.90
16392;DHT22;8305;-33.882;151.134;2023-01-09T05:03:13;26.60;99.90
16392;DHT22;8305;-33.882;151.134;2023-01-09T05:05:46;26.50;99.90
16392;DHT22;8305;-33.882;151.134;2023-01-09T05:08:17;26.40;99.90
16392;DHT22;8305;-33.882;151.134;2023-01-09T05:10:48;26.40;99.90
16392;DHT22;8305;-33.882;151.134;2023-01-09T05:13:19;26.40;99.90
16392;DHT22;8305;-33.882;151.134;2023-01-09T05:15:49;26.40;99.90
16392;DHT22;8305;-33.882;151.134;2023-01-09T05:18:20;26.40;99.90
16392;DHT22;8305;-33.882;151.134;2023-01-09T05:20:53;26.30;99.90
16392;DHT22;8305;-33.882;151.134;2023-01-09T05:23:24;26.30;99.90
16392;DHT22;8305;-33.882;151.134;2023-01-09T05:25:54;26.40;99.90
16392;DHT22;8305;-33.882;151.134;2023-01-09T05:28:25;26.50;99.90
16392;DHT22;8305;-33.882;151.134;2023-01-09T05:30:56;26.40;99.90
16392;DHT22;8305;-33.882;151.134;2023-01-09T05:33:27;26.50;99.90
16392;DHT22;8305;-33.882;151.134;2023-01-09T05:36:00;26.40;99.90
16392;DHT22;8305;-33.882;151.134;2023-01-09T05:38:30;26.30;99.90
16392;DHT22;8305;-33.882;151.134;2023-01-09T05:41:01;26.30;99.90
16392;DHT22;8305;-33.882;151.134;2023-01-09T05:43:34;26.20;99.90
16392;DHT22;8305;-33.882;151.134;2023-01-09T05:46:05;26.20;99.90
16392;DHT22;8305;-33.882;151.134;2023-01-09T05:48:36;26.20;99.90
16392;DHT22;8305;-33.882;151.134;2023-01-09T05:51:09;26.20;99.90
16392;DHT22;8305;-33.882;151.134;2023-01-09T05:53:39;26.20;99.90
16392;DHT22;8305;-33.882;151.134;2023-01-09T05:56:10;26.20;99.90
16392;DHT22;8305;-33.882;151.134;2023-01-09T05:58:41;26.30;99.90
16392;DHT22;8305;-33.882;151.134;2023-01-09T06:01:12;26.40;99.90
16392;DHT22;8305;-33.882;151.134;2023-01-09T06:03:43;26.30;99.90
16392;DHT22;8305;-33.882;151.134;2023-01-09T06:06:15;26.20;99.90
16392;DHT22;8305;-33.882;151.134;2023-01-09T06:08:46;26.10;99.90
16392;DHT22;8305;-33.882;151.134;2023-01-09T06:11:17;26.10;99.90
16392;DHT22;8305;-33.882;151.134;2023-01-09T06:13:48;25.90;99.90
16392;DHT22;8305;-33.882;151.134;2023-01-09T06:16:21;25.70;99.90
16392;DHT22;8305;-33.882;151.134;2023-01-09T06:18:52;25.60;99.90
16392;DHT22;8305;-33.882;151.134;2023-01-09T06:21:25;25.60;99.90
16392;DHT22;8305;-33.882;151.134;2023-01-09T06:23:56;25.60;99.90
16392;DHT22;8305;-33.882;151.134;2023-01-09T06:26:27;25.60;99.90
16392;DHT22;8305;-33.882;151.134;2023-01-09T06:28:58;25.60;99.90
16392;DHT22;8305;-33.882;151.134;2023-01-09T06:31:28;25.60;99.90
16392;DHT22;8305;-33.882;151.134;2023-01-09T06:33:59;25.50;99.90
16392;DHT22;8305;-33.882;151.134;2023-01-09T06:36:32;25.50;99.90
16392;DHT22;8305;-33.882;151.134;2023-01-09T06:39:03;25.50;99.90
16392;DHT22;8305;-33.882;151.134;2023-01-09T06:41:33;25.40;99.90
16392;DHT22;8305;-33.882;151.134;2023-01-09T06:44:04;25.40;99.90
16392;DHT22;8305;-33.882;151.134;2023-01-09T06:46:35;25.30;99.90
16392;DHT22;8305;-33.882;151.134;2023-01-09T06:49:07;25.20;99.90
16392;DHT22;8305;-33.882;151.134;2023-01-09T06:51:40;25.20;99.90
16392;DHT22;8305;-33.882;151.134;2023-01-09T06:54:11;25.20;99.90
16392;DHT22;8305;-33.882;151.134;2023-01-09T06:56:42;25.20;99.90
16392;DHT22;8305;-33.882;151.134;2023-01-09T06:59:13;25.10;99.90
16392;DHT22;8305;-33.882;151.134;2023-01-09T07:01:43;25.10;99.90
16392;DHT22;8305;-33.882;151.134;2023-01-09T07:04:14;25.10;99.90
16392;DHT22;8305;-33.882;151.134;2023-01-09T07:06:50;25.00;99.90
16392;DHT22;8305;-33.882;151.134;2023-01-09T07:09:24;25.00;99.90
16392;DHT22;8305;-33.882;151.134;2023-01-09T07:11:54;24.90;99.90
16392;DHT22;8305;-33.882;151.134;2023-01-09T07:14:25;24.80;99.90
16392;DHT22;8305;-33.882;151.134;2023-01-09T07:16:56;24.80;99.90
16392;DHT22;8305;-33.882;151.134;2023-01-09T07:19:27;24.80;99.90
16392;DHT22;8305;-33.882;151.134;2023-01-09T07:22:00;24.70;99.90
16392;DHT22;8305;-33.882;151.134;2023-01-09T07:24:31;24.60;99.90
16392;DHT22;8305;-33.882;151.134;2023-01-09T07:27:02;24.40;99.90
16392;DHT22;8305;-33.882;151.134;2023-01-09T07:29:33;24.40;99.90
16392;DHT22;8305;-33.882;151.134;2023-01-09T07:32:03;24.40;99.90
16392;DHT22;8305;-33.882;151.134;2023-01-09T07:34:34;24.40;99.90
16392;DHT22;8305;-33.882;151.134;2023-01-09T07:37:07;24.40;99.90
16392;DHT22;8305;-33.882;151.134;2023-01-09T07:39:38;24.30;99.90
16392;DHT22;8305;-33.882;151.134;2023-01-09T07:42:09;24.30;99.90
16392;DHT22;8305;-33.882;151.134;2023-01-09T07:44:39;24.30;99.90
16392;DHT22;8305;-33.882;151.134;2023-01-09T07:47:10;24.30;99.90
16392;DHT22;8305;-33.882;151.134;2023-01-09T07:49:41;24.30;99.90
16392;DHT22;8305;-33.882;151.134;2023-01-09T07:52:14;24.30;99.90
16392;DHT22;8305;-33.882;151.134;2023-01-09T07:54:45;24.30;99.90
16392;DHT22;8305;-33.882;151.134;2023-01-09T07:57:15;24.30;99.90
16392;DHT22;8305;-33.882;151.134;2023-01-09T07:59:46;24.30;99.90
16392;DHT22;8305;-33.882;151.134;2023-01-09T08:02:17;24.30;99.90
16392;DHT22;8305;-33.882;151.134;2023-01-09T08:04:48;24.20;99.90
16392;DHT22;8305;-33.882;151.134;2023-01-09T08:07:20;24.30;99.90
16392;DHT22;8305;-33.882;151.134;2023-01-09T08:09:51;24.30;99.90
16392;DHT22;8305;-33.882;151.134;2023-01-09T08:12:22;24.40;99.90
16392;DHT22;8305;-33.882;151.134;2023-01-09T08:14:53;24.30;99.90
16392;DHT22;8305;-33.882;151.134;2023-01-09T08:17:24;24.30;99.90
16392;DHT22;8305;-33.882;151.134;2023-01-09T08:19:54;24.40;99.90
16392;DHT22;8305;-33.882;151.134;2023-01-09T08:22:27;24.20;99.90
16392;DHT22;8305;-33.882;151.134;2023-01-09T08:24:58;24.20;99.90
16392;DHT22;8305;-33.882;151.134;2023-01-09T08:27:28;24.20;99.90
16392;DHT22;8305;-33.882;151.134;2023-01-09T08:29:59;24.20;99.90
16392;DHT22;8305;-33.882;151.134;2023-01-09T08:32:30;24.10;99.90
16392;DHT22;8305;-33.882;151.134;2023-01-09T08:35:01;24.00;99.90
16392;DHT22;8305;-33.882;151.134;2023-01-09T08:37:34;23.90;99.90
16392;DHT22;8305;-33.882;151.134;2023-01-09T08:40:05;23.80;99.90
16392;DHT22;8305;-33.882;151.134;2023-01-09T08:42:36;23.70;99.90
16392;DHT22;8305;-33.882;151.134;2023-01-09T08:45:22;23.60;99.90
16392;DHT22;8305;-33.882;151.134;2023-01-09T08:48:09;23.50;99.90
16392;DHT22;8305;-33.882;151.134;2023-01-09T08:50:40;23.40;99.90
16392;DHT22;8305;-33.882;151.134;2023-01-09T08:53:13;23.30;99.90
16392;DHT22;8305;-33.882;151.134;2023-01-09T08:55:44;23.20;99.90
16392;DHT22;8305;-33.882;151.134;2023-01-09T08:58:15;23.20;99.90
16392;DHT22;8305;-33.882;151.134;2023-01-09T09:00:45;23.10;99.90
16392;DHT22;8305;-33.882;151.134;2023-01-09T09:03:16;23.00;99.90
16392;DHT22;8305;-33.882;151.134;2023-01-09T09:05:48;22.90;99.90
16392;DHT22;8305;-33.882;151.134;2023-01-09T09:08:21;22.80;99.90
16392;DHT22;8305;-33.882;151.134;2023-01-09T09:10:51;22.80;99.90
16392;DHT22;8305;-33.882;151.134;2023-01-09T09:13:24;22.70;99.90
16392;DHT22;8305;-33.882;151.134;2023-01-09T09:15:54;22.70;99.90
16392;DHT22;8305;-33.882;151.134;2023-01-09T09:18:25;22.60;99.90
16392;DHT22;8305;-33.882;151.134;2023-01-09T09:20:59;22.50;99.90
16392;DHT22;8305;-33.882;151.134;2023-01-09T09:23:32;22.50;99.90
16392;DHT22;8305;-33.882;151.134;2023-01-09T09:26:02;22.50;99.90
16392;DHT22;8305;-33.882;151.134;2023-01-09T09:28:34;22.50;99.90
16392;DHT22;8305;-33.882;151.134;2023-01-09T09:31:06;22.40;99.90
16392;DHT22;8305;-33.882;151.134;2023-01-09T09:33:36;22.40;99.90
16392;DHT22;8305;-33.882;151.134;2023-01-09T09:36:07;22.40;99.90
16392;DHT22;8305;-33.882;151.134;2023-01-09T09:38:40;22.30;99.90
16392;DHT22;8305;-33.882;151.134;2023-01-09T09:41:28;22.30;99.90
16392;DHT22;8305;-33.882;151.134;2023-01-09T09:44:32;22.20;99.90
16392;DHT22;8305;-33.882;151.134;2023-01-09T09:47:25;22.20;99.90
16392;DHT22;8305;-33.882;151.134;2023-01-09T09:50:05;22.10;99.90
16392;DHT22;8305;-33.882;151.134;2023-01-09T09:52:44;22.10;99.90
16392;DHT22;8305;-33.882;151.134;2023-01-09T09:55:26;22.10;99.90
16392;DHT22;8305;-33.882;151.134;2023-01-09T09:58:01;22.00;99.90
16392;DHT22;8305;-33.882;151.134;2023-01-09T10:00:32;22.00;99.90
16392;DHT22;8305;-33.882;151.134;2023-01-09T10:03:05;22.00;99.90
16392;DHT22;8305;-33.882;151.134;2023-01-09T10:05:40;22.00;99.90
16392;DHT22;8305;-33.882;151.134;2023-01-09T10:08:17;21.90;99.90
16392;DHT22;8305;-33.882;151.134;2023-01-09T10:10:55;21.90;99.90
16392;DHT22;8305;-33.882;151.134;2023-01-09T10:13:26;21.90;99.90
16392;DHT22;8305;-33.882;151.134;2023-01-09T10:16:21;21.90;99.90
16392;DHT22;8305;-33.882;151.134;2023-01-09T10:19:01;21.90;99.90
16392;DHT22;8305;-33.882;151.134;2023-01-09T10:21:39;21.90;99.90
16392;DHT22;8305;-33.882;151.134;2023-01-09T10:24:26;21.90;99.90
16392;DHT22;8305;-33.882;151.134;2023-01-09T10:27:16;21.80;99.90
16392;DHT22;8305;-33.882;151.134;2023-01-09T10:29:59;21.80;99.90
16392;DHT22;8305;-33.882;151.134;2023-01-09T10:32:47;21.70;99.90
16392;DHT22;8305;-33.882;151.134;2023-01-09T10:38:26;21.70;99.90
16392;DHT22;8305;-33.882;151.134;2023-01-09T10:41:01;21.60;99.90
16392;DHT22;8305;-33.882;151.134;2023-01-09T10:43:40;21.60;99.90
16392;DHT22;8305;-33.882;151.134;2023-01-09T10:46:14;21.60;99.90
16392;DHT22;8305;-33.882;151.134;2023-01-09T10:48:50;21.60;99.90
16392;DHT22;8305;-33.882;151.134;2023-01-09T10:51:27;21.50;99.90
16392;DHT22;8305;-33.882;151.134;2023-01-09T10:54:01;21.50;99.90
16392;DHT22;8305;-33.882;151.134;2023-01-09T10:56:38;21.50;99.90
16392;DHT22;8305;-33.882;151.134;2023-01-09T10:59:11;21.50;99.90
16392;DHT22;8305;-33.882;151.134;2023-01-09T11:01:42;21.40;99.90
16392;DHT22;8305;-33.882;151.134;2023-01-09T11:04:20;21.40;99.90
16392;DHT22;8305;-33.882;151.134;2023-01-09T11:06:57;21.40;99.90
16392;DHT22;8305;-33.882;151.134;2023-01-09T11:09:55;21.40;99.90
16392;DHT22;8305;-33.882;151.134;2023-01-09T11:12:28;21.40;99.90
16392;DHT22;8305;-33.882;151.134;2023-01-09T11:15:26;21.30;99.90
16392;DHT22;8305;-33.882;151.134;2023-01-09T11:18:20;21.30;99.90
16392;DHT22;8305;-33.882;151.134;2023-01-09T11:20:53;21.30;99.90
16392;DHT22;8305;-33.882;151.134;2023-01-09T11:23:26;21.30;99.90
16392;DHT22;8305;-33.882;151.134;2023-01-09T11:25:59;21.20;99.90
16392;DHT22;8305;-33.882;151.134;2023-01-09T11:28:30;21.20;99.90
16392;DHT22;8305;-33.882;151.134;2023-01-09T11:31:03;21.20;99.90
16392;DHT22;8305;-33.882;151.134;2023-01-09T11:33:36;21.20;99.90
16392;DHT22;8305;-33.882;151.134;2023-01-09T11:36:12;21.20;99.90
16392;DHT22;8305;-33.882;151.134;2023-01-09T11:38:47;21.20;99.90
16392;DHT22;8305;-33.882;151.134;2023-01-09T11:41:21;21.10;99.90
16392;DHT22;8305;-33.882;151.134;2023-01-09T11:43:54;21.10;99.90
16392;DHT22;8305;-33.882;151.134;2023-01-09T11:46:38;21.10;99.90
16392;DHT22;8305;-33.882;151.134;2023-01-09T11:49:22;21.10;99.90
16392;DHT22;8305;-33.882;151.134;2023-01-09T11:52:14;21.10;99.90
16392;DHT22;8305;-33.882;151.134;2023-01-09T11:54:48;21.10;99.90
16392;DHT22;8305;-33.882;151.134;2023-01-09T11:57:20;21.00;99.90
16392;DHT22;8305;-33.882;151.134;2023-01-09T11:59:52;21.00;99.90
16392;DHT22;8305;-33.882;151.134;2023-01-09T12:02:45;21.00;99.90
16392;DHT22;8305;-33.882;151.134;2023-01-09T12:05:25;21.00;99.90
16392;DHT22;8305;-33.882;151.134;2023-01-09T12:08:10;21.00;99.90
16392;DHT22;8305;-33.882;151.134;2023-01-09T12:10:59;21.00;99.90
16392;DHT22;8305;-33.882;151.134;2023-01-09T12:13:53;21.00;99.90
16392;DHT22;8305;-33.882;151.134;2023-01-09T12:16:33;21.00;99.90
16392;DHT22;8305;-33.882;151.134;2023-01-09T12:19:34;21.00;99.90
16392;DHT22;8305;-33.882;151.134;2023-01-09T12:22:12;20.90;99.90
16392;DHT22;8305;-33.882;151.134;2023-01-09T12:25:03;20.90;99.90
16392;DHT22;8305;-33.882;151.134;2023-01-09T12:27:55;20.90;99.90
16392;DHT22;8305;-33.882;151.134;2023-01-09T12:30:49;20.90;99.90
16392;DHT22;8305;-33.882;151.134;2023-01-09T12:33:32;20.90;99.90
16392;DHT22;8305;-33.882;151.134;2023-01-09T12:36:20;20.80;99.90
16392;DHT22;8305;-33.882;151.134;2023-01-09T12:38:55;20.80;99.90
16392;DHT22;8305;-33.882;151.134;2023-01-09T12:41:46;20.80;99.90
16392;DHT22;8305;-33.882;151.134;2023-01-09T12:44:42;20.80;99.90
16392;DHT22;8305;-33.882;151.134;2023-01-09T12:47:40;20.80;99.90
16392;DHT22;8305;-33.882;151.134;2023-01-09T12:50:43;20.80;99.90
16392;DHT22;8305;-33.882;151.134;2023-01-09T12:53:22;20.70;99.90
16392;DHT22;8305;-33.882;151.134;2023-01-09T12:55:59;20.70;99.90
16392;DHT22;8305;-33.882;151.134;2023-01-09T12:58:39;20.60;99.90
16392;DHT22;8305;-33.882;151.134;2023-01-09T13:01:16;20.60;99.90
16392;DHT22;8305;-33.882;151.134;2023-01-09T13:03:53;20.60;99.90
16392;DHT22;8305;-33.882;151.134;2023-01-09T13:06:27;20.60;99.90
16392;DHT22;8305;-33.882;151.134;2023-01-09T13:09:09;20.50;99.90
16392;DHT22;8305;-33.882;151.134;2023-01-09T13:11:46;20.50;99.90
16392;DHT22;8305;-33.882;151.134;2023-01-09T13:14:21;20.50;99.90
16392;DHT22;8305;-33.882;151.134;2023-01-09T13:16:56;20.50;99.90
16392;DHT22;8305;-33.882;151.134;2023-01-09T13:19:30;20.40;99.90
16392;DHT22;8305;-33.882;151.134;2023-01-09T13:22:04;20.40;99.90
16392;DHT22;8305;-33.882;151.134;2023-01-09T13:24:49;20.40;99.90
16392;DHT22;8305;-33.882;151.134;2023-01-09T13:27:23;20.40;99.90
16392;DHT22;8305;-33.882;151.134;2023-01-09T13:30:05;20.40;99.90
16392;DHT22;8305;-33.882;151.134;2023-01-09T13:32:43;20.40;99.90
16392;DHT22;8305;-33.882;151.134;2023-01-09T13:35:18;20.40;99.90
16392;DHT22;8305;-33.882;151.134;2023-01-09T13:37:51;20.30;99.90
16392;DHT22;8305;-33.882;151.134;2023-01-09T13:40:29;20.30;99.90
16392;DHT22;8305;-33.882;151.134;2023-01-09T13:43:03;20.30;99.90
16392;DHT22;8305;-33.882;151.134;2023-01-09T13:45:37;20.30;99.90
16392;DHT22;8305;-33.882;151.134;2023-01-09T13:48:38;20.20;99.90
16392;DHT22;8305;-33.882;151.134;2023-01-09T13:51:45;20.20;99.90
16392;DHT22;8305;-33.882;151.134;2023-01-09T13:55:03;20.20;99.90
16392;DHT22;8305;-33.882;151.134;2023-01-09T13:57:37;20.20;99.90
16392;DHT22;8305;-33.882;151.134;2023-01-09T14:03:18;20.20;99.90
16392;DHT22;8305;-33.882;151.134;2023-01-09T14:06:19;20.10;99.90
16392;DHT22;8305;-33.882;151.134;2023-01-09T14:09:10;20.20;99.90
16392;DHT22;8305;-33.882;151.134;2023-01-09T14:11:42;20.10;99.90
16392;DHT22;8305;-33.882;151.134;2023-01-09T14:14:24;20.10;99.90
16392;DHT22;8305;-33.882;151.134;2023-01-09T14:16:57;20.10;99.90
16392;DHT22;8305;-33.882;151.134;2023-01-09T14:19:35;20.10;99.90
16392;DHT22;8305;-33.882;151.134;2023-01-09T14:22:16;20.10;99.90
16392;DHT22;8305;-33.882;151.134;2023-01-09T14:24:52;20.10;99.90
16392;DHT22;8305;-33.882;151.134;2023-01-09T14:28:02;20.10;99.90
16392;DHT22;8305;-33.882;151.134;2023-01-09T14:30:37;20.10;99.90
16392;DHT22;8305;-33.882;151.134;2023-01-09T14:33:26;20.10;99.90
16392;DHT22;8305;-33.882;151.134;2023-01-09T14:36:11;20.10;99.90
16392;DHT22;8305;-33.882;151.134;2023-01-09T14:38:45;20.10;99.90
16392;DHT22;8305;-33.882;151.134;2023-01-09T14:41:29;20.10;99.90
16392;DHT22;8305;-33.882;151.134;2023-01-09T14:44:30;20.10;99.90
16392;DHT22;8305;-33.882;151.134;2023-01-09T14:47:10;20.10;99.90
16392;DHT22;8305;-33.882;151.134;2023-01-09T14:49:47;20.10;99.90
16392;DHT22;8305;-33.882;151.134;2023-01-09T14:52:22;20.10;99.90
16392;DHT22;8305;-33.882;151.134;2023-01-09T14:54:57;20.00;99.90
16392;DHT22;8305;-33.882;151.134;2023-01-09T14:57:29;20.00;99.90
16392;DHT22;8305;-33.882;151.134;2023-01-09T15:00:02;20.00;99.90
16392;DHT22;8305;-33.882;151.134;2023-01-09T15:02:37;20.00;99.90
16392;DHT22;8305;-33.882;151.134;2023-01-09T15:05:10;19.90;99.90
16392;DHT22;8305;-33.882;151.134;2023-01-09T15:07:44;19.90;99.90
16392;DHT22;8305;-33.882;151.134;2023-01-09T15:10:20;19.90;99.90
16392;DHT22;8305;-33.882;151.134;2023-01-09T15:12:53;19.90;99.90
16392;DHT22;8305;-33.882;151.134;2023-01-09T15:15:24;19.90;99.90
16392;DHT22;8305;-33.882;151.134;2023-01-09T15:17:59;19.90;99.90
16392;DHT22;8305;-33.882;151.134;2023-01-09T15:20:31;19.90;99.90
16392;DHT22;8305;-33.882;151.134;2023-01-09T15:23:03;19.90;99.90
16392;DHT22;8305;-33.882;151.134;2023-01-09T15:25:34;19.90;99.90
16392;DHT22;8305;-33.882;151.134;2023-01-09T15:28:23;19.80;99.90
16392;DHT22;8305;-33.882;151.134;2023-01-09T15:30:58;19.80;99.90
16392;DHT22;8305;-33.882;151.134;2023-01-09T15:33:32;19.80;99.90
16392;DHT22;8305;-33.882;151.134;2023-01-09T15:36:09;19.80;99.90
16392;DHT22;8305;-33.882;151.134;2023-01-09T15:38:42;19.80;99.90
16392;DHT22;8305;-33.882;151.134;2023-01-09T15:41:16;19.80;99.90
16392;DHT22;8305;-33.882;151.134;2023-01-09T15:44:15;19.80;99.90
16392;DHT22;8305;-33.882;151.134;2023-01-09T15:46:48;19.80;99.90
16392;DHT22;8305;-33.882;151.134;2023-01-09T15:49:21;19.80;99.90
16392;DHT22;8305;-33.882;151.134;2023-01-09T15:51:53;19.80;99.90
16392;DHT22;8305;-33.882;151.134;2023-01-09T15:54:27;19.80;99.90
16392;DHT22;8305;-33.882;151.134;2023-01-09T15:57:31;19.90;99.90
16392;DHT22;8305;-33.882;151.134;2023-01-09T16:03:20;19.80;99.90
16392;DHT22;8305;-33.882;151.134;2023-01-09T16:05:56;19.70;99.90
16392;DHT22;8305;-33.882;151.134;2023-01-09T16:08:34;19.70;99.90
16392;DHT22;8305;-33.882;151.134;2023-01-09T16:11:07;19.60;99.90
16392;DHT22;8305;-33.882;151.134;2023-01-09T16:13:43;19.60;99.90
16392;DHT22;8305;-33.882;151.134;2023-01-09T16:16:23;19.50;99.90
16392;DHT22;8305;-33.882;151.134;2023-01-09T16:18:55;19.50;99.90